sensor_id;sensor_type;location;lat;lon;timestamp;pressure;altitude;pressure_sealevel;temperature;humidity
63907;BME280;50075;49.484;11.238;2022-08-19T00:01:43;97392.03;;;21.86;100.00
63907;BME280;50075;49.484;11.238;2022-08-19T00:04:11;97396.34;;;21.87;100.00
63907;BME280;50075;49.484;11.238;2022-08-19T00:06:39;97390.38;;;22.03;100.00
63907;BME280;50075;49.484;11.238;2022-08-19T00:09:08;97388.13;;;22.08;100.00
63907;BME280;50075;49.484;11.238;2022-08-19T00:11:34;97397.75;;;21.91;100.00
63907;BME280;50075;49.484;11.238;2022-08-19T00:14:01;97399.41;;;21.92;100.00
63907;BME280;50075;49.484;11.238;2022-08-19T00:16:27;97403.34;;;21.88;100.00
63907;BME280;50075;49.484;11.238;2022-08-19T00:18:54;97393.19;;;22.01;100.00
63907;BME280;50075;49.484;11.238;2022-08-19T00:21:20;97381.91;;;22.17;100.00
63907;BME280;50075;49.484;11.238;2022-08-19T00:23:46;97391.38;;;21.74;100.00
63907;BME280;50075;49.484;11.238;2022-08-19T00:26:11;97394.09;;;21.92;100.00
63907;BME280;50075;49.484;11.238;2022-08-19T00:28:37;97387.97;;;22.09;100.00
63907;BME280;50075;49.484;11.238;2022-08-19T00:31:04;97384.47;;;22.09;100.00
63907;BME280;50075;49.484;11.238;2022-08-19T00:33:31;97395.13;;;22.27;100.00
63907;BME280;50075;49.484;11.238;2022-08-19T00:36:00;97391.78;;;22.25;100.00
63907;BME280;50075;49.484;11.238;2022-08-19T00:38:26;97397.56;;;22.38;100.00
63907;BME280;50075;49.484;11.238;2022-08-19T00:40:52;97403.06;;;21.91;100.00
63907;BME280;50075;49.484;11.238;2022-08-19T00:43:20;97406.03;;;22.06;100.00
63907;BME280;50075;49.484;11.238;2022-08-19T00:45:46;97398.34;;;22.03;100.00
63907;BME280;50075;49.484;11.238;2022-08-19T00:48:12;97402.84;;;22.02;100.00
63907;BME280;50075;49.484;11.238;2022-08-19T00:50:40;97405.19;;;22.05;100.00
63907;BME280;50075;49.484;11.238;2022-08-19T00:53:10;97409.72;;;21.95;100.00
63907;BME280;50075;49.484;11.238;2022-08-19T00:55:37;97412.75;;;22.46;100.00
63907;BME280;50075;49.484;11.238;2022-08-19T00:58:08;97410.00;;;21.92;100.00
63907;BME280;50075;49.484;11.238;2022-08-19T01:00:35;97403.38;;;22.24;100.00
63907;BME280;50075;49.484;11.238;2022-08-19T01:03:05;97407.16;;;22.03;100.00
63907;BME280;50075;49.484;11.238;2022-08-19T01:05:31;97401.63;;;22.14;100.00
63907;BME280;50075;49.484;11.238;2022-08-19T01:08:01;97396.31;;;21.97;100.00
63907;BME280;50075;49.484;11.238;2022-08-19T01:10:29;97398.31;;;21.85;100.00
63907;BME280;50075;49.484;11.238;2022-08-19T01:12:58;97399.19;;;22.03;100.00
63907;BME280;50075;49.484;11.238;2022-08-19T01:15:29;97395.44;;;21.96;100.00
63907;BME280;50075;49.484;11.238;2022-08-19T01:17:55;97390.94;;;22.06;100.00
63907;BME280;50075;49.484;11.238;2022-08-19T01:20:22;97408.06;;;22.12;100.00
63907;BME280;50075;49.484;11.238;2022-08-19T01:22:51;97399.78;;;21.97;100.00
63907;BME280;50075;49.484;11.238;2022-08-19T01:25:20;97407.31;;;22.20;100.00
63907;BME280;50075;49.484;11.238;2022-08-19T01:27:49;97402.50;;;22.33;100.00
63907;BME280;50075;49.484;11.238;2022-08-19T01:30:19;97407.53;;;22.08;100.00
63907;BME280;50075;49.484;11.238;2022-08-19T01:32:45;97411.03;;;22.09;100.00
63907;BME280;50075;49.484;11.238;2022-08-19T01:35:12;97400.47;;;21.99;100.00
63907;BME280;50075;49.484;11.238;2022-08-19T01:37:48;97405.84;;;22.07;100.00
63907;BME280;50075;49.484;11.238;2022-08-19T01:40:13;97413.28;;;21.86;100.00
63907;BME280;50075;49.484;11.238;2022-08-19T01:42:39;97412.59;;;22.29;100.00
63907;BME280;50075;49.484;11.238;2022-08-19T01:45:05;97422.50;;;22.09;100.00
63907;BME280;50075;49.484;11.238;2022-08-19T01:47:35;97419.75;;;22.01;100.00
63907;BME280;50075;49.484;11.238;2022-08-19T01:50:00;97420.03;;;21.98;100.00
63907;BME280;50075;49.484;11.238;2022-08-19T01:52:27;97427.63;;;21.93;100.00
63907;BME280;50075;49.484;11.238;2022-08-19T01:54:52;97440.50;;;21.88;100.00
63907;BME280;50075;49.484;11.238;2022-08-19T01:57:18;97445.69;;;21.80;100.00
63907;BME280;50075;49.484;11.238;2022-08-19T01:59:44;97435.13;;;21.98;100.00
63907;BME280;50075;49.484;11.238;2022-08-19T02:02:10;97445.34;;;21.65;100.00
63907;BME280;50075;49.484;11.238;2022-08-19T02:04:36;97437.47;;;21.83;100.00
63907;BME280;50075;49.484;11.238;2022-08-19T02:07:03;97435.97;;;21.98;100.00
63907;BME280;50075;49.484;11.238;2022-08-19T02:09:30;97433.50;;;21.59;100.00
63907;BME280;50075;49.484;11.238;2022-08-19T02:11:56;97432.53;;;21.60;100.00
63907;BME280;50075;49.484;11.238;2022-08-19T02:14:21;97432.69;;;21.59;100.00
63907;BME280;50075;49.484;11.238;2022-08-19T02:16:47;97444.25;;;21.67;100.00
63907;BME280;50075;49.484;11.238;2022-08-19T02:19:12;97463.19;;;21.72;100.00
63907;BME280;50075;49.484;11.238;2022-08-19T02:21:38;97471.88;;;21.74;100.00
63907;BME280;50075;49.484;11.238;2022-08-19T02:24:03;97473.19;;;21.88;100.00
63907;BME280;50075;49.484;11.238;2022-08-19T02:26:29;97478.50;;;22.26;100.00
63907;BME280;50075;49.484;11.238;2022-08-19T02:28:55;97474.69;;;22.01;100.00
63907;BME280;50075;49.484;11.238;2022-08-19T02:31:23;97478.78;;;21.85;100.00
63907;BME280;50075;49.484;11.238;2022-08-19T02:33:48;97486.38;;;21.80;100.00
63907;BME280;50075;49.484;11.238;2022-08-19T02:36:15;97479.03;;;21.92;100.00
63907;BME280;50075;49.484;11.238;2022-08-19T02:38:42;97475.72;;;21.90;100.00
63907;BME280;50075;49.484;11.238;2022-08-19T02:41:12;97481.00;;;21.90;100.00
63907;BME280;50075;49.484;11.238;2022-08-19T02:43:38;97485.59;;;21.98;100.00
63907;BME280;50075;49.484;11.238;2022-08-19T02:46:29;97486.59;;;21.87;100.00
63907;BME280;50075;49.484;11.238;2022-08-19T02:48:57;97492.50;;;21.81;100.00
63907;BME280;50075;49.484;11.238;2022-08-19T02:51:36;97492.03;;;21.95;100.00
63907;BME280;50075;49.484;11.238;2022-08-19T02:54:03;97482.97;;;22.16;100.00
63907;BME280;50075;49.484;11.238;2022-08-19T02:56:29;97480.72;;;21.93;100.00
63907;BME280;50075;49.484;11.238;2022-08-19T02:58:56;97495.91;;;21.73;100.00
63907;BME280;50075;49.484;11.238;2022-08-19T03:01:25;97487.50;;;21.78;100.00
63907;BME280;50075;49.484;11.238;2022-08-19T03:03:52;97496.53;;;21.28;100.00
63907;BME280;50075;49.484;11.238;2022-08-19T03:06:18;97494.56;;;21.30;100.00
63907;BME280;50075;49.484;11.238;2022-08-19T03:08:45;97491.38;;;21.46;100.00
63907;BME280;50075;49.484;11.238;2022-08-19T03:11:25;97486.34;;;21.52;100.00
63907;BME280;50075;49.484;11.238;2022-08-19T03:13:51;97484.66;;;21.42;100.00
63907;BME280;50075;49.484;11.238;2022-08-19T03:16:18;97471.66;;;21.38;100.00
63907;BME280;50075;49.484;11.238;2022-08-19T03:18:44;97467.22;;;21.29;100.00
63907;BME280;50075;49.484;11.238;2022-08-19T03:21:18;97459.78;;;21.43;100.00
63907;BME280;50075;49.484;11.238;2022-08-19T03:23:44;97447.88;;;21.66;100.00
63907;BME280;50075;49.484;11.238;2022-08-19T03:26:10;97435.19;;;21.88;100.00
63907;BME280;50075;49.484;11.238;2022-08-19T03:28:35;97438.06;;;21.77;100.00
63907;BME280;50075;49.484;11.238;2022-08-19T03:31:07;97424.28;;;21.91;100.00
63907;BME280;50075;49.484;11.238;2022-08-19T03:33:33;97426.28;;;21.79;100.00
63907;BME280;50075;49.484;11.238;2022-08-19T03:36:17;97428.25;;;21.77;100.00
63907;BME280;50075;49.484;11.238;2022-08-19T03:38:47;97411.09;;;21.99;100.00
63907;BME280;50075;49.484;11.238;2022-08-19T03:41:17;97416.56;;;21.70;100.00
63907;BME280;50075;49.484;11.238;2022-08-19T03:43:43;97422.81;;;21.51;100.00
63907;BME280;50075;49.484;11.238;2022-08-19T03:46:15;97436.47;;;21.56;100.00
63907;BME280;50075;49.484;11.238;2022-08-19T03:48:42;97445.00;;;21.40;100.00
63907;BME280;50075;49.484;11.238;2022-08-19T03:51:18;97450.22;;;21.22;100.00
63907;BME280;50075;49.484;11.238;2022-08-19T03:53:45;97445.44;;;21.45;100.00
63907;BME280;50075;49.484;11.238;2022-08-19T03:56:11;97435.66;;;21.46;100.00
63907;BME280;50075;49.484;11.238;2022-08-19T03:58:38;97434.19;;;21.61;100.00
63907;BME280;50075;49.484;11.238;2022-08-19T04:01:11;97432.53;;;21.60;100.00
63907;BME280;50075;49.484;11.238;2022-08-19T04:03:38;97423.84;;;21.68;100.00
63907;BME280;50075;49.484;11.238;2022-08-19T04:08:35;97426.03;;;21.72;100.00
63907;BME280;50075;49.484;11.238;2022-08-19T04:11:01;97429.75;;;21.52;100.00
63907;BME280;50075;49.484;11.238;2022-08-19T04:13:26;97429.41;;;21.74;100.00
63907;BME280;50075;49.484;11.238;2022-08-19T04:15:52;97435.19;;;21.60;100.00
63907;BME280;50075;49.484;11.238;2022-08-19T04:18:18;97463.00;;;21.56;100.00
63907;BME280;50075;49.484;11.238;2022-08-19T04:20:45;97459.91;;;21.61;100.00
63907;BME280;50075;49.484;11.238;2022-08-19T04:23:12;97462.59;;;21.51;100.00
63907;BME280;50075;49.484;11.238;2022-08-19T04:25:42;97469.69;;;21.60;100.00
63907;BME280;50075;49.484;11.238;2022-08-19T04:28:09;97482.00;;;21.51;100.00
63907;BME280;50075;49.484;11.238;2022-08-19T04:30:43;97487.75;;;21.47;100.00
63907;BME280;50075;49.484;11.238;2022-08-19T04:33:10;97482.28;;;21.48;100.00
63907;BME280;50075;49.484;11.238;2022-08-19T04:35:41;97480.75;;;21.46;100.00
63907;BME280;50075;49.484;11.238;2022-08-19T04:38:07;97479.13;;;21.72;100.00
63907;BME280;50075;49.484;11.238;2022-08-19T04:40:42;97503.31;;;21.69;100.00
63907;BME280;50075;49.484;11.238;2022-08-19T04:43:26;97504.00;;;21.71;100.00
63907;BME280;50075;49.484;11.238;2022-08-19T04:45:52;97504.69;;;21.73;100.00
63907;BME280;50075;49.484;11.238;2022-08-19T04:48:18;97507.25;;;21.65;100.00
63907;BME280;50075;49.484;11.238;2022-08-19T04:50:50;97501.94;;;21.65;100.00
63907;BME280;50075;49.484;11.238;2022-08-19T04:53:16;97509.31;;;21.71;100.00
63907;BME280;50075;49.484;11.238;2022-08-19T04:55:42;97522.31;;;21.65;100.00
63907;BME280;50075;49.484;11.238;2022-08-19T04:58:07;97521.31;;;21.75;100.00
63907;BME280;50075;49.484;11.238;2022-08-19T05:00:33;97509.19;;;22.01;100.00
63907;BME280;50075;49.484;11.238;2022-08-19T05:02:58;97500.88;;;21.86;100.00
63907;BME280;50075;49.484;11.238;2022-08-19T05:05:23;97518.25;;;21.70;100.00
63907;BME280;50075;49.484;11.238;2022-08-19T05:07:49;97519.88;;;21.81;100.00
63907;BME280;50075;49.484;11.238;2022-08-19T05:10:14;97528.25;;;21.86;100.00
63907;BME280;50075;49.484;11.238;2022-08-19T05:12:40;97534.47;;;21.67;100.00
63907;BME280;50075;49.484;11.238;2022-08-19T05:15:06;97553.06;;;21.67;100.00
63907;BME280;50075;49.484;11.238;2022-08-19T05:17:33;97547.94;;;21.93;100.00
63907;BME280;50075;49.484;11.238;2022-08-19T05:19:59;97549.78;;;21.83;100.00
63907;BME280;50075;49.484;11.238;2022-08-19T05:22:45;97544.78;;;21.70;100.00
63907;BME280;50075;49.484;11.238;2022-08-19T05:25:15;97537.94;;;22.05;100.00
63907;BME280;50075;49.484;11.238;2022-08-19T05:27:44;97538.16;;;22.31;100.00
63907;BME280;50075;49.484;11.238;2022-08-19T05:30:10;97522.84;;;22.97;100.00
63907;BME280;50075;49.484;11.238;2022-08-19T05:32:37;97529.13;;;22.42;100.00
63907;BME280;50075;49.484;11.238;2022-08-19T05:35:04;97537.94;;;22.05;100.00
63907;BME280;50075;49.484;11.238;2022-08-19T05:37:29;97540.19;;;22.10;100.00
63907;BME280;50075;49.484;11.238;2022-08-19T05:39:55;97548.19;;;22.38;100.00
63907;BME280;50075;49.484;11.238;2022-08-19T05:42:20;97545.97;;;22.23;100.00
63907;BME280;50075;49.484;11.238;2022-08-19T05:44:47;97543.63;;;22.30;100.00
63907;BME280;50075;49.484;11.238;2022-08-19T05:47:15;97541.81;;;22.21;100.00
63907;BME280;50075;49.484;11.238;2022-08-19T05:49:41;97540.00;;;22.49;100.00
63907;BME280;50075;49.484;11.238;2022-08-19T05:52:10;97525.63;;;23.05;100.00
63907;BME280;50075;49.484;11.238;2022-08-19T05:54:38;97539.91;;;23.04;100.00
63907;BME280;50075;49.484;11.238;2022-08-19T05:57:05;97538.81;;;23.33;100.00
63907;BME280;50075;49.484;11.238;2022-08-19T05:59:31;97510.34;;;24.55;100.00
63907;BME280;50075;49.484;11.238;2022-08-19T06:01:58;97511.59;;;24.34;100.00
63907;BME280;50075;49.484;11.238;2022-08-19T06:04:24;97480.53;;;25.42;100.00
63907;BME280;50075;49.484;11.238;2022-08-19T06:06:51;97470.50;;;25.60;100.00
63907;BME280;50075;49.484;11.238;2022-08-19T06:09:18;97460.53;;;26.33;100.00
63907;BME280;50075;49.484;11.238;2022-08-19T06:11:55;97456.66;;;26.90;100.00
63907;BME280;50075;49.484;11.238;2022-08-19T06:14:24;97461.59;;;26.55;100.00
63907;BME280;50075;49.484;11.238;2022-08-19T06:16:50;97460.72;;;26.63;100.00
63907;BME280;50075;49.484;11.238;2022-08-19T06:19:21;97460.84;;;26.69;100.00
63907;BME280;50075;49.484;11.238;2022-08-19T06:21:49;97456.06;;;26.80;100.00
63907;BME280;50075;49.484;11.238;2022-08-19T06:24:18;97462.03;;;26.04;100.00
63907;BME280;50075;49.484;11.238;2022-08-19T06:26:46;97450.56;;;26.27;100.00
63907;BME280;50075;49.484;11.238;2022-08-19T06:29:13;97440.78;;;27.94;100.00
63907;BME280;50075;49.484;11.238;2022-08-19T06:31:42;97452.09;;;26.76;100.00
63907;BME280;50075;49.484;11.238;2022-08-19T06:34:09;97460.72;;;26.86;100.00
63907;BME280;50075;49.484;11.238;2022-08-19T06:36:37;97468.97;;;26.22;100.00
63907;BME280;50075;49.484;11.238;2022-08-19T06:39:07;97476.88;;;26.07;100.00
63907;BME280;50075;49.484;11.238;2022-08-19T06:41:39;97488.91;;;25.30;100.00
63907;BME280;50075;49.484;11.238;2022-08-19T06:44:06;97470.53;;;26.70;100.00
63907;BME280;50075;49.484;11.238;2022-08-19T06:46:31;97479.41;;;26.40;100.00
63907;BME280;50075;49.484;11.238;2022-08-19T06:48:57;97494.09;;;25.07;100.00
63907;BME280;50075;49.484;11.238;2022-08-19T06:51:24;97489.44;;;25.26;100.00
63907;BME280;50075;49.484;11.238;2022-08-19T06:53:51;97495.41;;;24.78;100.00
63907;BME280;50075;49.484;11.238;2022-08-19T06:56:22;97511.28;;;24.46;100.00
63907;BME280;50075;49.484;11.238;2022-08-19T06:58:50;97501.88;;;24.68;100.00
63907;BME280;50075;49.484;11.238;2022-08-19T07:01:18;97514.13;;;23.93;100.00
63907;BME280;50075;49.484;11.238;2022-08-19T07:03:44;97511.28;;;23.68;100.00
63907;BME280;50075;49.484;11.238;2022-08-19T07:06:11;97531.53;;;23.35;100.00
63907;BME280;50075;49.484;11.238;2022-08-19T07:08:38;97521.22;;;24.27;100.00
63907;BME280;50075;49.484;11.238;2022-08-19T07:11:10;97514.50;;;24.07;100.00
63907;BME280;50075;49.484;11.238;2022-08-19T07:13:37;97522.50;;;24.15;100.00
63907;BME280;50075;49.484;11.238;2022-08-19T07:16:05;97528.25;;;23.67;100.00
63907;BME280;50075;49.484;11.238;2022-08-19T07:18:31;97533.56;;;23.67;100.00
63907;BME280;50075;49.484;11.238;2022-08-19T07:21:13;97549.47;;;23.59;100.00
63907;BME280;50075;49.484;11.238;2022-08-19T07:23:40;97553.50;;;23.19;100.00
63907;BME280;50075;49.484;11.238;2022-08-19T07:26:18;97556.66;;;23.41;100.00
63907;BME280;50075;49.484;11.238;2022-08-19T07:28:45;97552.34;;;23.84;100.00
63907;BME280;50075;49.484;11.238;2022-08-19T07:31:13;97562.09;;;23.13;100.00
63907;BME280;50075;49.484;11.238;2022-08-19T07:33:39;97554.88;;;23.67;100.00
63907;BME280;50075;49.484;11.238;2022-08-19T07:36:07;97553.97;;;23.33;100.00
63907;BME280;50075;49.484;11.238;2022-08-19T07:38:36;97567.56;;;23.12;100.00
63907;BME280;50075;49.484;11.238;2022-08-19T07:41:03;97563.41;;;23.09;100.00
63907;BME280;50075;49.484;11.238;2022-08-19T07:43:29;97567.09;;;23.34;100.00
63907;BME280;50075;49.484;11.238;2022-08-19T07:45:55;97563.97;;;23.39;100.00
63907;BME280;50075;49.484;11.238;2022-08-19T07:48:24;97563.06;;;23.74;100.00
63907;BME280;50075;49.484;11.238;2022-08-19T07:50:54;97561.88;;;23.06;100.00
63907;BME280;50075;49.484;11.238;2022-08-19T07:53:21;97554.53;;;23.71;100.00
63907;BME280;50075;49.484;11.238;2022-08-19T07:55:47;97556.22;;;23.72;100.00
63907;BME280;50075;49.484;11.238;2022-08-19T07:58:15;97552.66;;;23.81;100.00
63907;BME280;50075;49.484;11.238;2022-08-19T08:00:44;97549.06;;;23.46;100.00
63907;BME280;50075;49.484;11.238;2022-08-19T08:03:10;97550.41;;;23.50;100.00
63907;BME280;50075;49.484;11.238;2022-08-19T08:05:35;97550.41;;;23.76;100.00
63907;BME280;50075;49.484;11.238;2022-08-19T08:08:19;97557.19;;;23.44;100.00
63907;BME280;50075;49.484;11.238;2022-08-19T08:11:23;97541.72;;;23.66;100.00
63907;BME280;50075;49.484;11.238;2022-08-19T08:13:48;97545.28;;;23.75;100.00
63907;BME280;50075;49.484;11.238;2022-08-19T08:16:14;97530.16;;;24.10;100.00
63907;BME280;50075;49.484;11.238;2022-08-19T08:18:40;97539.44;;;23.97;100.00
63907;BME280;50075;49.484;11.238;2022-08-19T08:21:07;97530.78;;;24.03;100.00
63907;BME280;50075;49.484;11.238;2022-08-19T08:23:33;97530.53;;;23.80;100.00
63907;BME280;50075;49.484;11.238;2022-08-19T08:25:59;97541.22;;;23.71;100.00
63907;BME280;50075;49.484;11.238;2022-08-19T08:28:26;97546.41;;;23.46;100.00
63907;BME280;50075;49.484;11.238;2022-08-19T08:30:55;97529.81;;;23.52;100.00
63907;BME280;50075;49.484;11.238;2022-08-19T08:33:23;97518.53;;;24.61;100.00
63907;BME280;50075;49.484;11.238;2022-08-19T08:35:49;97538.47;;;23.10;100.00
63907;BME280;50075;49.484;11.238;2022-08-19T08:38:15;97538.94;;;23.50;100.00
63907;BME280;50075;49.484;11.238;2022-08-19T08:40:48;97546.09;;;23.05;100.00
63907;BME280;50075;49.484;11.238;2022-08-19T08:43:27;97558.66;;;23.03;100.00
63907;BME280;50075;49.484;11.238;2022-08-19T08:46:08;97550.31;;;23.16;100.00
63907;BME280;50075;49.484;11.238;2022-08-19T08:51:14;97545.72;;;23.44;100.00
63907;BME280;50075;49.484;11.238;2022-08-19T08:53:42;97556.56;;;23.51;100.00
63907;BME280;50075;49.484;11.238;2022-08-19T08:56:09;97554.63;;;23.79;100.00
63907;BME280;50075;49.484;11.238;2022-08-19T08:59:12;97567.38;;;22.95;100.00
63907;BME280;50075;49.484;11.238;2022-08-19T09:01:42;97547.94;;;24.01;100.00
63907;BME280;50075;49.484;11.238;2022-08-19T09:04:09;97532.50;;;24.55;100.00
63907;BME280;50075;49.484;11.238;2022-08-19T09:06:42;97535.94;;;24.39;100.00
63907;BME280;50075;49.484;11.238;2022-08-19T09:09:18;97535.81;;;24.07;100.00
63907;BME280;50075;49.484;11.238;2022-08-19T09:14:36;97541.66;;;23.58;100.00
63907;BME280;50075;49.484;11.238;2022-08-19T09:17:09;97545.84;;;23.60;100.00
63907;BME280;50075;49.484;11.238;2022-08-19T09:19:48;97528.31;;;24.44;100.00
63907;BME280;50075;49.484;11.238;2022-08-19T09:22:14;97535.50;;;24.52;100.00
63907;BME280;50075;49.484;11.238;2022-08-19T09:24:39;97540.75;;;23.93;100.00
63907;BME280;50075;49.484;11.238;2022-08-19T09:27:05;97526.88;;;24.67;100.00
63907;BME280;50075;49.484;11.238;2022-08-19T09:29:31;97529.63;;;24.49;100.00
63907;BME280;50075;49.484;11.238;2022-08-19T09:31:56;97541.19;;;23.80;100.00
63907;BME280;50075;49.484;11.238;2022-08-19T09:34:22;97541.13;;;24.07;100.00
63907;BME280;50075;49.484;11.238;2022-08-19T09:36:48;97542.78;;;24.08;100.00
63907;BME280;50075;49.484;11.238;2022-08-19T09:39:19;97551.59;;;23.74;100.00
63907;BME280;50075;49.484;11.238;2022-08-19T09:41:44;97548.47;;;24.04;100.00
63907;BME280;50075;49.484;11.238;2022-08-19T09:44:10;97542.13;;;24.05;100.00
63907;BME280;50075;49.484;11.238;2022-08-19T09:46:37;97535.75;;;23.98;100.00
63907;BME280;50075;49.484;11.238;2022-08-19T09:49:03;97531.16;;;24.17;100.00
63907;BME280;50075;49.484;11.238;2022-08-19T09:51:31;97526.03;;;24.23;100.00
63907;BME280;50075;49.484;11.238;2022-08-19T09:54:00;97529.13;;;24.02;100.00
63907;BME280;50075;49.484;11.238;2022-08-19T09:56:27;97541.88;;;23.38;100.00
63907;BME280;50075;49.484;11.238;2022-08-19T09:58:53;97554.00;;;23.41;100.00
63907;BME280;50075;49.484;11.238;2022-08-19T10:01:24;97556.75;;;23.49;100.00
63907;BME280;50075;49.484;11.238;2022-08-19T10:03:53;97550.19;;;24.22;100.00
63907;BME280;50075;49.484;11.238;2022-08-19T10:06:21;97554.47;;;22.82;100.00
63907;BME280;50075;49.484;11.238;2022-08-19T10:08:48;97555.75;;;23.50;100.00
63907;BME280;50075;49.484;11.238;2022-08-19T10:11:14;97562.41;;;23.54;100.00
63907;BME280;50075;49.484;11.238;2022-08-19T10:13:41;97563.69;;;23.42;100.00
63907;BME280;50075;49.484;11.238;2022-08-19T10:16:10;97561.81;;;23.60;100.00
63907;BME280;50075;49.484;11.238;2022-08-19T10:18:36;97556.16;;;23.63;100.00
63907;BME280;50075;49.484;11.238;2022-08-19T10:21:14;97568.09;;;23.33;100.00
63907;BME280;50075;49.484;11.238;2022-08-19T10:23:43;97566.28;;;23.60;100.00
63907;BME280;50075;49.484;11.238;2022-08-19T10:26:14;97562.53;;;23.71;100.00
63907;BME280;50075;49.484;11.238;2022-08-19T10:28:40;97549.88;;;24.25;100.00
63907;BME280;50075;49.484;11.238;2022-08-19T10:31:09;97562.22;;;23.92;100.00
63907;BME280;50075;49.484;11.238;2022-08-19T10:33:35;97564.22;;;23.72;100.00
63907;BME280;50075;49.484;11.238;2022-08-19T10:36:11;97563.19;;;24.25;100.00
63907;BME280;50075;49.484;11.238;2022-08-19T10:38:37;97557.63;;;24.44;100.00
63907;BME280;50075;49.484;11.238;2022-08-19T10:41:14;97566.81;;;23.63;100.00
63907;BME280;50075;49.484;11.238;2022-08-19T10:43:41;97574.38;;;23.50;100.00
63907;BME280;50075;49.484;11.238;2022-08-19T10:46:08;97569.34;;;23.91;100.00
63907;BME280;50075;49.484;11.238;2022-08-19T10:48:35;97578.03;;;23.49;100.00
63907;BME280;50075;49.484;11.238;2022-08-19T10:51:01;97588.91;;;23.02;100.00
63907;BME280;50075;49.484;11.238;2022-08-19T10:53:45;97584.31;;;23.84;100.00
63907;BME280;50075;49.484;11.238;2022-08-19T10:56:10;97582.66;;;23.47;100.00
63907;BME280;50075;49.484;11.238;2022-08-19T10:58:54;97589.81;;;23.28;100.00
63907;BME280;50075;49.484;11.238;2022-08-19T11:01:21;97568.06;;;23.51;100.00
63907;BME280;50075;49.484;11.238;2022-08-19T11:03:47;97584.69;;;23.71;100.00
63907;BME280;50075;49.484;11.238;2022-08-19T11:06:12;97583.25;;;23.59;100.00
63907;BME280;50075;49.484;11.238;2022-08-19T11:08:37;97581.53;;;23.76;100.00
63907;BME280;50075;49.484;11.238;2022-08-19T11:11:04;97585.66;;;23.44;100.00
63907;BME280;50075;49.484;11.238;2022-08-19T11:13:33;97580.44;;;23.60;100.00
63907;BME280;50075;49.484;11.238;2022-08-19T11:16:09;97595.13;;;23.46;100.00
63907;BME280;50075;49.484;11.238;2022-08-19T11:18:37;97585.66;;;23.44;100.00
63907;BME280;50075;49.484;11.238;2022-08-19T11:23:33;97588.47;;;23.42;100.00
63907;BME280;50075;49.484;11.238;2022-08-19T11:25:58;97589.53;;;23.14;100.00
63907;BME280;50075;49.484;11.238;2022-08-19T11:28:24;97588.22;;;23.36;100.00
63907;BME280;50075;49.484;11.238;2022-08-19T11:30:50;97588.13;;;22.91;100.00
63907;BME280;50075;49.484;11.238;2022-08-19T11:33:15;97599.53;;;22.56;100.00
63907;BME280;50075;49.484;11.238;2022-08-19T11:35:40;97605.47;;;22.68;100.00
63907;BME280;50075;49.484;11.238;2022-08-19T11:38:06;97596.53;;;22.69;100.00
63907;BME280;50075;49.484;11.238;2022-08-19T11:40:31;97599.22;;;22.87;100.00
63907;BME280;50075;49.484;11.238;2022-08-19T11:42:58;97592.91;;;22.70;100.00
63907;BME280;50075;49.484;11.238;2022-08-19T11:45:25;97600.97;;;22.50;100.00
63907;BME280;50075;49.484;11.238;2022-08-19T11:47:52;97594.13;;;22.94;100.00
63907;BME280;50075;49.484;11.238;2022-08-19T11:50:18;97594.66;;;22.79;100.00
63907;BME280;50075;49.484;11.238;2022-08-19T11:52:43;97591.63;;;22.74;100.00
63907;BME280;50075;49.484;11.238;2022-08-19T11:55:10;97586.75;;;22.87;100.00
63907;BME280;50075;49.484;11.238;2022-08-19T11:57:36;97597.84;;;22.65;100.00
63907;BME280;50075;49.484;11.238;2022-08-19T12:00:03;97588.50;;;22.61;100.00
63907;BME280;50075;49.484;11.238;2022-08-19T12:02:30;97618.91;;;22.48;100.00
63907;BME280;50075;49.484;11.238;2022-08-19T12:04:56;97637.81;;;21.79;100.00
63907;BME280;50075;49.484;11.238;2022-08-19T12:07:21;97642.28;;;21.68;100.00
63907;BME280;50075;49.484;11.238;2022-08-19T12:09:47;97636.72;;;21.71;100.00
63907;BME280;50075;49.484;11.238;2022-08-19T12:12:12;97627.16;;;21.98;100.00
63907;BME280;50075;49.484;11.238;2022-08-19T12:14:38;97629.69;;;21.90;100.00
63907;BME280;50075;49.484;11.238;2022-08-19T12:17:04;97629.59;;;21.82;100.00
63907;BME280;50075;49.484;11.238;2022-08-19T12:19:32;97627.44;;;21.95;100.00
63907;BME280;50075;49.484;11.238;2022-08-19T12:22:00;97612.84;;;22.09;100.00
63907;BME280;50075;49.484;11.238;2022-08-19T12:24:32;97616.66;;;22.06;100.00
63907;BME280;50075;49.484;11.238;2022-08-19T12:26:58;97623.53;;;21.99;100.00
63907;BME280;50075;49.484;11.238;2022-08-19T12:29:27;97621.63;;;22.19;100.00
63907;BME280;50075;49.484;11.238;2022-08-19T12:31:55;97617.34;;;22.46;100.00
63907;BME280;50075;49.484;11.238;2022-08-19T12:34:27;97620.41;;;22.13;100.00
63907;BME280;50075;49.484;11.238;2022-08-19T12:36:58;97623.72;;;21.78;100.00
63907;BME280;50075;49.484;11.238;2022-08-19T12:39:24;97625.66;;;21.86;100.00
63907;BME280;50075;49.484;11.238;2022-08-19T12:41:50;97629.97;;;21.97;100.00
63907;BME280;50075;49.484;11.238;2022-08-19T12:44:16;97618.44;;;22.16;100.00
63907;BME280;50075;49.484;11.238;2022-08-19T12:46:42;97613.66;;;22.29;100.00
63907;BME280;50075;49.484;11.238;2022-08-19T12:49:08;97611.00;;;22.57;100.00
63907;BME280;50075;49.484;11.238;2022-08-19T12:51:33;97625.66;;;22.33;100.00
63907;BME280;50075;49.484;11.238;2022-08-19T12:53:59;97621.53;;;22.76;100.00
63907;BME280;50075;49.484;11.238;2022-08-19T12:56:24;97606.28;;;22.50;100.00